createdAt,value
2019-02-17T00:01:39.104Z,101105.31
2019-02-17T00:04:41.028Z,101106.45
2019-02-17T00:07:42.979Z,101103.31
2019-02-17T00:10:44.910Z,101101.11
2019-02-17T00:13:46.883Z,101106.75
2019-02-17T00:16:48.785Z,101101.66
2019-02-17T00:19:50.733Z,101098.94
2019-02-17T00:22:52.709Z,101104.77
2019-02-17T00:25:54.687Z,101103.40
2019-02-17T00:28:59.338Z,101107.48
2019-02-17T00:32:00.505Z,101106.88
2019-02-17T00:35:02.559Z,101099.25
2019-02-17T00:38:04.517Z,101107.49
2019-02-17T00:41:06.597Z,101107.80
2019-02-17T00:44:08.557Z,101110.11
2019-02-17T00:47:10.498Z,101113.67
2019-02-17T00:50:12.429Z,101107.90
2019-02-17T00:53:14.343Z,101111.67
2019-02-17T00:56:16.352Z,101107.28
2019-02-17T00:59:18.752Z,101110.86
2019-02-17T01:02:20.735Z,101111.87
2019-02-17T01:05:22.723Z,101108.43
2019-02-17T01:08:24.674Z,101109.81
2019-02-17T01:11:26.582Z,101107.39
2019-02-17T01:14:28.564Z,101109.17
2019-02-17T01:17:30.526Z,101106.54
2019-02-17T01:20:32.521Z,101104.14
2019-02-17T01:23:34.514Z,101109.50
2019-02-17T01:26:36.475Z,101107.59
2019-02-17T01:29:38.428Z,101104.98
2019-02-17T01:32:40.454Z,101104.35
2019-02-17T01:35:42.391Z,101102.58
2019-02-17T01:38:44.391Z,101095.58
2019-02-17T01:41:46.396Z,101090.34
2019-02-17T01:44:48.359Z,101103.52
2019-02-17T01:47:50.316Z,101099.34
2019-02-17T01:50:52.331Z,101098.20
2019-02-17T01:53:54.394Z,101098.63
2019-02-17T01:56:56.353Z,101099.98
2019-02-17T01:59:58.338Z,101099.55
2019-02-17T02:03:00.439Z,101097.47
2019-02-17T02:06:02.454Z,101095.89
2019-02-17T02:09:07.865Z,101093.48
2019-02-17T02:12:09.798Z,101092.13
2019-02-17T02:15:11.945Z,101093.69
2019-02-17T02:18:14.235Z,101085.54
2019-02-17T02:21:16.103Z,101095.63
2019-02-17T02:24:18.072Z,101098.44
2019-02-17T02:27:20.192Z,101091.73
2019-02-17T02:30:22.152Z,101099.65
2019-02-17T02:33:23.997Z,101095.08
2019-02-17T02:36:25.949Z,101099.34
2019-02-17T02:39:27.825Z,101099.65
2019-02-17T02:42:29.749Z,101106.77
2019-02-17T02:45:31.641Z,101099.45
2019-02-17T02:48:33.545Z,101101.75
2019-02-17T02:51:36.793Z,101102.66
2019-02-17T02:54:38.831Z,101105.59
2019-02-17T02:57:40.909Z,101097.98
2019-02-17T03:00:42.910Z,101099.83
2019-02-17T03:03:46.083Z,101101.83
2019-02-17T03:06:53.137Z,101102.88
2019-02-17T03:09:55.016Z,101099.22
2019-02-17T03:12:56.975Z,101100.04
2019-02-17T03:15:58.815Z,101102.52
2019-02-17T03:19:00.814Z,101107.06
2019-02-17T03:22:02.782Z,101113.33
2019-02-17T03:25:05.713Z,101108.77
2019-02-17T03:28:07.748Z,101108.64
2019-02-17T03:31:09.785Z,101110.41
2019-02-17T03:34:11.830Z,101106.09
2019-02-17T03:37:13.790Z,101112.52
2019-02-17T03:40:15.689Z,101109.56
2019-02-17T03:43:17.663Z,101117.41
2019-02-17T03:46:19.614Z,101118.45
2019-02-17T03:49:21.559Z,101115.52
2019-02-17T03:52:23.443Z,101116.05
2019-02-17T03:55:25.382Z,101112.63
2019-02-17T03:58:27.357Z,101119.30
2019-02-17T04:01:29.291Z,101120.66
2019-02-17T04:04:31.359Z,101126.09
2019-02-17T04:07:33.294Z,101123.38
2019-02-17T04:10:35.263Z,101121.16
2019-02-17T04:13:38.508Z,101121.16
2019-02-17T04:16:40.477Z,101122.92
2019-02-17T04:19:42.422Z,101121.97
2019-02-17T04:22:44.363Z,101124.03
2019-02-17T04:25:46.321Z,101130.88
2019-02-17T04:28:48.314Z,101125.86
2019-02-17T04:31:50.383Z,101135.63
2019-02-17T04:34:52.322Z,101140.52
2019-02-17T04:37:54.215Z,101144.98
2019-02-17T04:40:56.186Z,101149.05
2019-02-17T04:43:58.178Z,101147.66
2019-02-17T04:47:00.060Z,101157.43
2019-02-17T04:50:01.982Z,101161.31
2019-02-17T04:53:03.948Z,101157.12
2019-02-17T04:56:05.921Z,101151.42
2019-02-17T04:59:07.913Z,101155.36
2019-02-17T05:02:09.789Z,101156.16
2019-02-17T05:05:11.838Z,101150.80
2019-02-17T05:08:13.728Z,101152.11
2019-02-17T05:11:15.679Z,101154.95
2019-02-17T05:14:17.631Z,101148.97
2019-02-17T05:17:20.300Z,101148.19
2019-02-17T05:20:22.497Z,101142.52
2019-02-17T05:23:24.512Z,101156.80
2019-02-17T05:26:26.508Z,101152.59
2019-02-17T05:29:28.508Z,101149.67
2019-02-17T05:32:31.512Z,101153.74
2019-02-17T05:35:33.439Z,101157.49
2019-02-17T05:38:35.422Z,101153.56
2019-02-17T05:41:38.347Z,101157.36
2019-02-17T05:44:40.356Z,101158.84
2019-02-17T05:47:42.292Z,101156.58
2019-02-17T05:50:44.304Z,101166.63
2019-02-17T05:53:46.332Z,101168.89
2019-02-17T05:56:48.236Z,101166.19
2019-02-17T05:59:50.243Z,101164.83
2019-02-17T06:02:52.239Z,101171.66
2019-02-17T06:05:54.203Z,101175.10
2019-02-17T06:08:56.178Z,101175.20
2019-02-17T06:11:58.103Z,101180.22
2019-02-17T06:15:00.231Z,101180.06
2019-02-17T06:18:02.341Z,101177.17
2019-02-17T06:21:04.314Z,101182.63
2019-02-17T06:24:06.213Z,101185.35
2019-02-17T06:27:08.192Z,101189.90
2019-02-17T06:30:10.151Z,101186.44
2019-02-17T06:33:12.102Z,101181.95
2019-02-17T06:36:14.282Z,101185.05
2019-02-17T06:39:16.221Z,101193.98
2019-02-17T06:42:18.153Z,101198.09
2019-02-17T06:45:20.075Z,101202.53
2019-02-17T06:48:21.975Z,101197.81
2019-02-17T06:51:23.900Z,101197.05
2019-02-17T06:54:25.770Z,101196.72
2019-02-17T06:57:29.507Z,101198.22
2019-02-17T07:00:39.168Z,101198.12
2019-02-17T07:03:41.145Z,101194.85
2019-02-17T07:06:45.125Z,101191.14
2019-02-17T07:09:47.141Z,101189.95
2019-02-17T07:12:49.013Z,101178.73
2019-02-17T07:15:51.071Z,101182.52
2019-02-17T07:18:52.942Z,101186.57
2019-02-17T07:21:54.913Z,101198.23
2019-02-17T07:24:57.119Z,101186.34
2019-02-17T07:27:59.079Z,101183.34
2019-02-17T07:31:01.048Z,101178.60
2019-02-17T07:34:03.012Z,101181.17
2019-02-17T07:37:05.941Z,101179.86
2019-02-17T07:40:08.149Z,101180.08
2019-02-17T07:43:11.963Z,101184.62
2019-02-17T07:46:13.920Z,101185.54
2019-02-17T07:49:15.773Z,101182.31
2019-02-17T07:52:17.720Z,101177.75
2019-02-17T07:55:19.634Z,101179.00
2019-02-17T07:58:21.558Z,101176.77
2019-02-17T08:01:23.579Z,101166.53
2019-02-17T08:04:25.481Z,101165.23
2019-02-17T08:07:27.527Z,101159.41
2019-02-17T08:10:29.398Z,101158.16
2019-02-17T08:13:31.685Z,101164.88
2019-02-17T08:16:33.560Z,101168.59
2019-02-17T08:19:35.537Z,101169.55
2019-02-17T08:22:37.428Z,101171.30
2019-02-17T08:25:39.383Z,101173.64
2019-02-17T08:28:42.683Z,101164.20
2019-02-17T08:31:54.943Z,101157.30
2019-02-17T08:34:49.122Z,101157.85
2019-02-17T08:37:51.088Z,101163.66
2019-02-17T08:40:53.121Z,101158.04
2019-02-17T08:43:55.210Z,101162.03
2019-02-17T08:46:57.087Z,101166.61
2019-02-17T08:49:59.040Z,101164.53
2019-02-17T08:53:00.916Z,101166.28
2019-02-17T08:56:02.897Z,101166.28
2019-02-17T08:59:04.787Z,101169.88
2019-02-17T09:02:06.860Z,101170.35
2019-02-17T09:05:08.770Z,101164.98
2019-02-17T09:08:10.811Z,101175.69
2019-02-17T09:11:12.739Z,101176.09
2019-02-17T09:14:14.749Z,101174.44
2019-02-17T09:17:16.680Z,101174.22
2019-02-17T09:20:18.711Z,101171.11
2019-02-17T09:23:20.646Z,101176.67
2019-02-17T09:26:22.628Z,101178.72
2019-02-17T09:29:24.603Z,101183.70
2019-02-17T09:32:26.641Z,101181.83
2019-02-17T09:35:28.602Z,101185.72
2019-02-17T09:38:30.565Z,101186.84
2019-02-17T09:41:32.479Z,101180.45
2019-02-17T09:44:34.470Z,101182.96
2019-02-17T09:47:36.343Z,101181.02
2019-02-17T09:50:38.260Z,101182.41
2019-02-17T09:53:40.215Z,101184.34
2019-02-17T09:56:42.244Z,101184.34
2019-02-17T09:59:44.173Z,101179.63
2019-02-17T10:02:46.231Z,101182.08
2019-02-17T10:05:48.127Z,101177.92
2019-02-17T10:08:50.186Z,101182.33
2019-02-17T10:11:52.120Z,101176.80
2019-02-17T10:14:54.086Z,101174.56
2019-02-17T10:17:56.382Z,101169.02
2019-02-17T10:20:58.309Z,101172.63
2019-02-17T10:24:00.195Z,101172.62
2019-02-17T10:27:02.151Z,101168.45
2019-02-17T10:30:18.287Z,101168.95
2019-02-17T10:33:21.342Z,101169.17
2019-02-17T10:36:23.290Z,101165.61
2019-02-17T10:39:25.240Z,101160.60
2019-02-17T10:42:27.156Z,101158.33
2019-02-17T10:45:29.123Z,101148.95
2019-02-17T10:48:31.197Z,101147.00
2019-02-17T10:51:33.179Z,101148.33
2019-02-17T10:54:35.123Z,101147.52
2019-02-17T10:57:37.122Z,101143.09
2019-02-17T11:00:39.093Z,101143.65
2019-02-17T11:03:44.811Z,101136.45
2019-02-17T11:06:46.842Z,101136.98
2019-02-17T11:09:48.989Z,101138.37
2019-02-17T11:12:50.934Z,101132.29
2019-02-17T11:15:52.871Z,101131.06
2019-02-17T11:18:54.888Z,101129.95
2019-02-17T11:21:56.859Z,101125.78
2019-02-17T11:24:58.818Z,101122.70
2019-02-17T11:28:00.751Z,101124.91
2019-02-17T11:31:03.239Z,101113.48
2019-02-17T11:34:05.270Z,101115.16
2019-02-17T11:37:07.311Z,101112.98
2019-02-17T11:40:11.255Z,101111.00
2019-02-17T11:43:13.159Z,101105.46
2019-02-17T11:46:15.161Z,101105.17
2019-02-17T11:49:17.059Z,101099.34
2019-02-17T11:52:19.089Z,101095.14
2019-02-17T11:55:22.751Z,101092.09
2019-02-17T11:58:25.053Z,101087.95
2019-02-17T12:01:26.995Z,101083.27
2019-02-17T12:04:29.016Z,101079.63
2019-02-17T12:07:30.931Z,101080.17
2019-02-17T12:10:32.930Z,101077.97
2019-02-17T12:13:34.870Z,101076.80
2019-02-17T12:16:37.406Z,101081.27
2019-02-17T12:19:39.558Z,101074.83
2019-02-17T12:22:42.807Z,101075.67
2019-02-17T12:26:01.693Z,101068.98
2019-02-17T12:29:05.681Z,101068.45
2019-02-17T12:32:09.493Z,101065.38
2019-02-17T12:35:11.490Z,101063.13
2019-02-17T12:38:13.463Z,101068.11
2019-02-17T12:41:15.604Z,101060.55
2019-02-17T12:44:17.562Z,101060.30
2019-02-17T12:47:19.586Z,101058.91
2019-02-17T12:50:21.579Z,101062.05
2019-02-17T12:53:23.633Z,101057.94
2019-02-17T12:56:25.658Z,101053.17
2019-02-17T12:59:27.769Z,101051.77
2019-02-17T13:02:29.703Z,101049.50
2019-02-17T13:05:31.737Z,101041.43
2019-02-17T13:08:33.713Z,101041.94
2019-02-17T13:11:35.799Z,101039.21
2019-02-17T13:14:37.729Z,101032.23
2019-02-17T13:17:39.866Z,101031.13
2019-02-17T13:20:41.852Z,101033.57
2019-02-17T13:23:43.827Z,101030.57
2019-02-17T13:26:45.805Z,101035.55
2019-02-17T13:29:47.755Z,101023.09
2019-02-17T13:32:49.767Z,101025.59
2019-02-17T13:35:51.835Z,101024.53
2019-02-17T13:38:53.799Z,101027.28
2019-02-17T13:41:55.825Z,101026.69
2019-02-17T13:44:57.951Z,101025.89
2019-02-17T13:48:00.124Z,101027.02
2019-02-17T13:51:02.021Z,101021.14
2019-02-17T13:54:03.953Z,101027.80
2019-02-17T13:57:06.004Z,101020.30
2019-02-17T14:00:17.547Z,101017.80
2019-02-17T14:03:19.530Z,101019.25
2019-02-17T14:06:21.548Z,101012.39
2019-02-17T14:09:23.644Z,101014.34
2019-02-17T14:12:25.814Z,101009.59
2019-02-17T14:15:27.804Z,101011.83
2019-02-17T14:18:29.798Z,101008.25
2019-02-17T14:21:31.768Z,101009.08
2019-02-17T14:24:33.716Z,101010.20
2019-02-17T14:27:36.281Z,101000.48
2019-02-17T14:30:38.277Z,100997.76
2019-02-17T14:33:40.203Z,100993.91
2019-02-17T14:36:42.262Z,100992.58
2019-02-17T14:39:44.201Z,100987.56
2019-02-17T14:42:46.583Z,100975.45
2019-02-17T14:45:48.517Z,100985.92
2019-02-17T14:48:50.721Z,100980.71
2019-02-17T14:51:52.807Z,100975.47
2019-02-17T14:54:54.825Z,100968.90
2019-02-17T14:58:05.006Z,100965.63
2019-02-17T15:01:00.742Z,100966.33
2019-02-17T15:04:08.797Z,100963.05
2019-02-17T15:07:06.603Z,100964.77
2019-02-17T15:10:13.196Z,100968.11
2019-02-17T15:13:15.476Z,100970.59
2019-02-17T15:16:17.450Z,100969.25
2019-02-17T15:19:19.514Z,100962.89
2019-02-17T15:22:22.675Z,100965.41
2019-02-17T15:25:24.702Z,100961.30
2019-02-17T15:28:26.797Z,100957.77
2019-02-17T15:31:30.885Z,100961.11
2019-02-17T15:34:35.335Z,100956.16
2019-02-17T15:37:37.142Z,100957.57
2019-02-17T15:40:39.104Z,100960.70
2019-02-17T15:43:41.359Z,100957.20
2019-02-17T15:46:43.291Z,100959.47
2019-02-17T15:49:45.307Z,100954.30
2019-02-17T15:52:47.728Z,100943.55
2019-02-17T15:55:49.740Z,100946.65
2019-02-17T15:58:51.648Z,100944.31
2019-02-17T16:01:53.676Z,100943.50
2019-02-17T16:04:57.168Z,100951.27
2019-02-17T16:07:59.264Z,100946.88
2019-02-17T16:11:01.289Z,100940.55
2019-02-17T16:14:03.368Z,100941.61
2019-02-17T16:17:05.303Z,100942.45
2019-02-17T16:20:10.322Z,100940.50
2019-02-17T16:23:12.225Z,100946.78
2019-02-17T16:26:14.332Z,100945.34
2019-02-17T16:29:16.963Z,100948.71
2019-02-17T16:32:18.929Z,100952.26
2019-02-17T16:35:20.843Z,100954.16
2019-02-17T16:38:24.852Z,100947.70
2019-02-17T16:41:26.807Z,100955.50
2019-02-17T16:44:29.559Z,100954.92
2019-02-17T16:47:31.670Z,100953.89
2019-02-17T16:50:33.726Z,100963.06
2019-02-17T16:53:35.701Z,100968.55
2019-02-17T16:56:37.731Z,100968.27
2019-02-17T16:59:39.698Z,100962.08
2019-02-17T17:02:41.609Z,100972.66
2019-02-17T17:05:47.202Z,100968.63
2019-02-17T17:08:49.215Z,100967.16
2019-02-17T17:11:54.126Z,100960.78
2019-02-17T17:14:56.617Z,100964.78
2019-02-17T17:17:58.502Z,100962.00
2019-02-17T17:21:00.969Z,100964.09
2019-02-17T17:24:04.675Z,100960.97
2019-02-17T17:27:09.039Z,100962.34
2019-02-17T17:30:14.884Z,100962.41
2019-02-17T17:33:19.566Z,100959.14
2019-02-17T17:36:21.515Z,100960.37
2019-02-17T17:39:23.572Z,100964.42
2019-02-17T17:42:26.638Z,100965.19
2019-02-17T17:45:30.665Z,100962.63
2019-02-17T17:48:38.524Z,100954.47
2019-02-17T17:51:40.783Z,100960.00
2019-02-17T17:54:43.857Z,100957.47
2019-02-17T17:57:46.213Z,100953.00
2019-02-17T18:00:51.084Z,100958.59
2019-02-17T18:03:53.083Z,100957.73
2019-02-17T18:06:57.178Z,100959.36
2019-02-17T18:10:01.523Z,100962.10
2019-02-17T18:13:07.822Z,100962.10
2019-02-17T18:16:12.523Z,100963.63
2019-02-17T18:19:15.782Z,100962.63
2019-02-17T18:22:20.083Z,100962.77
2019-02-17T18:25:23.182Z,100965.47
2019-02-17T18:28:26.894Z,100964.89
2019-02-17T18:31:29.674Z,100963.75
2019-02-17T18:34:32.056Z,100961.87
2019-02-17T18:37:37.264Z,100957.90
2019-02-17T18:40:44.983Z,100957.81
2019-02-17T18:43:43.434Z,100958.72
2019-02-17T18:46:45.393Z,100958.26
2019-02-17T18:49:47.595Z,100960.27
2019-02-17T18:52:51.200Z,100953.76
2019-02-17T18:55:53.611Z,100960.58
2019-02-17T18:58:55.524Z,100963.52
2019-02-17T19:01:57.832Z,100958.15
2019-02-17T19:05:01.824Z,100961.05
2019-02-17T19:08:07.415Z,100950.77
2019-02-17T19:11:09.320Z,100950.00
2019-02-17T19:14:13.305Z,100955.30
2019-02-17T19:17:15.944Z,100952.10
2019-02-17T19:20:36.680Z,100950.14
2019-02-17T19:23:38.623Z,100945.72
2019-02-17T19:26:40.508Z,100961.02
2019-02-17T19:29:43.429Z,100963.75
2019-02-17T19:32:48.747Z,100967.16
2019-02-17T19:35:50.626Z,100958.89
2019-02-17T19:38:54.135Z,100963.98
2019-02-17T19:41:56.021Z,100967.29
2019-02-17T19:44:58.859Z,100965.23
2019-02-17T19:48:01.144Z,100966.11
2019-02-17T19:51:03.619Z,100969.53
2019-02-17T19:54:06.121Z,100968.43
2019-02-17T19:57:10.524Z,100970.58
2019-02-17T20:00:14.224Z,100970.73
2019-02-17T20:03:27.696Z,100967.74
2019-02-17T20:06:29.580Z,100969.01
2019-02-17T20:09:32.755Z,100970.53
2019-02-17T20:12:34.693Z,100969.27
2019-02-17T20:15:36.697Z,100976.95
2019-02-17T20:18:43.567Z,100971.25
2019-02-17T20:21:45.510Z,100970.85
2019-02-17T20:24:47.444Z,100975.05
2019-02-17T20:27:51.000Z,100970.34
2019-02-17T20:30:52.968Z,100968.40
2019-02-17T20:33:54.903Z,100964.23
2019-02-17T20:36:57.227Z,100956.05
2019-02-17T20:39:59.283Z,100963.54
2019-02-17T20:43:01.495Z,100957.36
2019-02-17T20:46:03.854Z,100959.05
2019-02-17T20:49:07.467Z,100960.22
2019-02-17T20:52:11.549Z,100964.48
2019-02-17T20:55:13.762Z,100961.00
2019-02-17T20:58:16.112Z,100956.59
2019-02-17T21:01:18.065Z,100955.98
2019-02-17T21:04:22.202Z,100955.98
2019-02-17T21:07:24.108Z,100956.70
2019-02-17T21:10:26.123Z,100950.45
2019-02-17T21:13:29.840Z,100958.94
2019-02-17T21:16:32.637Z,100953.78
2019-02-17T21:19:36.474Z,100965.10
2019-02-17T21:22:39.953Z,100954.91
2019-02-17T21:25:41.908Z,100961.02
2019-02-17T21:28:43.864Z,100961.45
2019-02-17T21:31:45.765Z,100966.51
2019-02-17T21:34:48.043Z,100967.20
2019-02-17T21:37:49.941Z,100969.46
2019-02-17T21:40:52.935Z,100965.36
2019-02-17T21:43:54.844Z,100968.09
2019-02-17T21:46:56.799Z,100961.45
2019-02-17T21:49:58.702Z,100961.59
2019-02-17T21:53:00.746Z,100950.98
2019-02-17T21:56:02.751Z,100958.89
2019-02-17T21:59:04.687Z,100957.08
2019-02-17T22:02:06.573Z,100955.73
2019-02-17T22:05:08.494Z,100953.76
2019-02-17T22:08:10.411Z,100956.34
2019-02-17T22:11:12.361Z,100964.69
2019-02-17T22:14:14.317Z,100959.98
2019-02-17T22:17:16.524Z,100947.64
2019-02-17T22:20:18.557Z,100943.58
2019-02-17T22:23:20.490Z,100947.09
2019-02-17T22:26:22.440Z,100943.50
2019-02-17T22:29:24.340Z,100939.70
2019-02-17T22:32:26.613Z,100936.61
2019-02-17T22:35:28.514Z,100937.06
2019-02-17T22:38:30.427Z,100940.91
2019-02-17T22:41:32.353Z,100939.43
2019-02-17T22:44:34.223Z,100938.55
2019-02-17T22:47:36.143Z,100939.14
2019-02-17T22:50:38.123Z,100942.33
2019-02-17T22:53:43.767Z,100937.17
2019-02-17T22:56:44.003Z,100932.64
2019-02-17T22:59:47.028Z,100934.33
2019-02-17T23:02:48.992Z,100938.58
2019-02-17T23:05:50.854Z,100935.34
2019-02-17T23:08:52.814Z,100942.54
2019-02-17T23:11:54.722Z,100939.20
2019-02-17T23:14:56.630Z,100944.20
2019-02-17T23:17:58.499Z,100935.86
2019-02-17T23:21:00.413Z,100935.08
2019-02-17T23:24:02.346Z,100933.27
2019-02-17T23:27:04.341Z,100933.66
2019-02-17T23:30:09.261Z,100930.83
2019-02-17T23:33:11.209Z,100926.75
2019-02-17T23:36:13.180Z,100929.13
2019-02-17T23:39:15.128Z,100928.44
2019-02-17T23:42:17.067Z,100925.10
2019-02-17T23:45:19.026Z,100926.88
2019-02-17T23:48:20.957Z,100929.34
2019-02-17T23:51:22.943Z,100919.08
2019-02-17T23:54:24.796Z,100919.84
2019-02-17T23:57:26.703Z,100925.91
